METAR Data
IDs: Format: Raw Decoded Include TAF

Data at: 0032 UTC 01 Mar 2021

LUKK 010030Z 31007KT 9999 -RASN BKN010 OVC024 01/01 Q1024 R26/290150 TEMPO 5000 RASN OVC005